createdAt,value
2018-12-25T00:00:45.150Z,4.90
2018-12-25T00:03:13.752Z,4.50
2018-12-25T00:05:42.305Z,5.57
2018-12-25T00:08:10.864Z,5.33
2018-12-25T00:10:39.646Z,4.93
2018-12-25T00:13:08.227Z,4.07
2018-12-25T00:15:36.984Z,5.03
2018-12-25T00:18:05.928Z,5.60
2018-12-25T00:20:34.566Z,5.20
2018-12-25T00:23:03.128Z,4.03
2018-12-25T00:25:31.768Z,6.83
2018-12-25T00:28:00.342Z,6.57
2018-12-25T00:30:29.030Z,6.17
2018-12-25T00:33:00.296Z,5.70
2018-12-25T00:35:28.932Z,5.50
2018-12-25T00:37:57.830Z,5.40
2018-12-25T00:40:26.380Z,6.07
2018-12-25T00:42:56.764Z,5.57
2018-12-25T00:45:28.134Z,4.93
2018-12-25T00:47:57.244Z,3.60
2018-12-25T00:50:25.962Z,5.00
2018-12-25T00:52:54.634Z,5.73
2018-12-25T00:55:23.466Z,5.47
2018-12-25T00:57:52.022Z,5.40
2018-12-25T01:00:20.656Z,6.43
2018-12-25T01:02:49.694Z,5.77
2018-12-25T01:05:18.294Z,6.97
2018-12-25T01:07:46.924Z,6.60
2018-12-25T01:10:15.783Z,6.60
2018-12-25T01:12:44.424Z,4.23
2018-12-25T01:15:13.364Z,6.17
2018-12-25T01:17:42.315Z,6.87
2018-12-25T01:20:11.562Z,4.37
2018-12-25T01:22:40.114Z,6.13
2018-12-25T01:25:09.342Z,6.03
2018-12-25T01:27:37.972Z,6.60
2018-12-25T01:30:06.749Z,5.87
2018-12-25T01:32:35.602Z,6.60
2018-12-25T01:35:04.895Z,7.07
2018-12-25T01:37:33.443Z,7.00
2018-12-25T01:40:04.115Z,5.67
2018-12-25T01:42:32.992Z,6.60
2018-12-25T01:45:01.559Z,7.43
2018-12-25T01:47:30.381Z,7.03
2018-12-25T01:49:58.930Z,6.53
2018-12-25T01:52:27.946Z,6.10
2018-12-25T01:54:56.510Z,5.43
2018-12-25T01:57:25.198Z,6.00
2018-12-25T01:59:53.752Z,4.80
2018-12-25T02:02:22.422Z,6.40
2018-12-25T02:04:50.986Z,4.10
2018-12-25T02:07:19.664Z,5.30
2018-12-25T02:09:48.224Z,6.47
2018-12-25T02:12:17.423Z,5.77
2018-12-25T02:14:46.055Z,6.33
2018-12-25T02:17:14.770Z,4.63
2018-12-25T02:19:43.714Z,6.17
2018-12-25T02:22:12.412Z,6.73
2018-12-25T02:24:41.095Z,4.63
2018-12-25T02:27:09.659Z,5.00
2018-12-25T02:29:41.500Z,6.33
2018-12-25T02:32:10.139Z,6.80
2018-12-25T02:34:38.819Z,5.30
2018-12-25T02:37:07.448Z,6.40
2018-12-25T02:39:36.328Z,5.73
2018-12-25T02:42:04.949Z,6.17
2018-12-25T02:44:33.956Z,4.97
2018-12-25T02:47:02.719Z,5.47
2018-12-25T02:49:31.283Z,6.93
2018-12-25T02:51:59.980Z,6.90
2018-12-25T02:54:28.616Z,5.87
2018-12-25T02:56:57.659Z,6.13
2018-12-25T02:59:26.240Z,4.30
2018-12-25T03:01:54.912Z,7.10
2018-12-25T03:04:23.505Z,6.50
2018-12-25T03:06:52.184Z,7.27
2018-12-25T03:09:20.743Z,7.53
2018-12-25T03:11:50.979Z,6.50
2018-12-25T03:14:19.535Z,7.13
2018-12-25T03:16:48.223Z,7.00
2018-12-25T03:19:17.093Z,7.40
2018-12-25T03:21:46.369Z,5.30
2018-12-25T03:24:14.928Z,6.00
2018-12-25T03:26:43.479Z,5.97
2018-12-25T03:29:12.829Z,6.53
2018-12-25T03:31:41.459Z,6.80
2018-12-25T03:34:10.641Z,5.60
2018-12-25T03:36:39.197Z,5.37
2018-12-25T03:39:08.047Z,6.00
2018-12-25T03:41:36.761Z,6.50
2018-12-25T03:44:05.465Z,6.30
2018-12-25T03:46:34.017Z,4.73
2018-12-25T03:49:03.364Z,4.57
2018-12-25T03:51:31.902Z,5.70
2018-12-25T03:54:00.590Z,5.20
2018-12-25T03:56:29.147Z,5.53
2018-12-25T03:58:57.810Z,6.20
2018-12-25T04:01:26.373Z,3.63
2018-12-25T04:03:55.055Z,3.87
2018-12-25T04:06:23.618Z,4.93
2018-12-25T04:08:53.008Z,5.43
2018-12-25T04:11:21.565Z,5.00
2018-12-25T04:13:50.231Z,4.63
2018-12-25T04:16:18.789Z,5.00
2018-12-25T04:18:47.923Z,4.70
2018-12-25T04:21:16.591Z,3.50
2018-12-25T04:23:45.267Z,5.70
2018-12-25T04:26:13.827Z,5.23
2018-12-25T04:28:42.831Z,4.80
2018-12-25T04:31:11.313Z,4.87
2018-12-25T04:33:39.982Z,4.80
2018-12-25T04:36:08.527Z,4.40
2018-12-25T04:38:37.212Z,4.53
2018-12-25T04:41:05.769Z,5.00
2018-12-25T04:43:34.436Z,5.73
2018-12-25T04:46:02.996Z,4.37
2018-12-25T04:48:31.912Z,3.70
2018-12-25T04:51:00.458Z,4.80
2018-12-25T04:53:29.132Z,4.97
2018-12-25T04:55:57.683Z,6.30
2018-12-25T04:58:26.368Z,5.10
2018-12-25T05:00:54.900Z,4.73
2018-12-25T05:03:24.023Z,5.07
2018-12-25T05:05:55.265Z,5.10
2018-12-25T05:08:23.821Z,4.80
2018-12-25T05:10:52.540Z,5.30
2018-12-25T05:13:21.101Z,4.10
2018-12-25T05:15:49.773Z,4.60
2018-12-25T05:18:18.381Z,4.73
2018-12-25T05:20:47.699Z,3.50
2018-12-25T05:23:16.249Z,4.73
2018-12-25T05:25:44.931Z,5.67
2018-12-25T05:28:13.496Z,4.33
2018-12-25T05:30:42.174Z,5.30
2018-12-25T05:33:10.735Z,3.70
2018-12-25T05:35:39.503Z,5.10
2018-12-25T05:38:08.063Z,4.97
2018-12-25T05:40:37.279Z,2.73
2018-12-25T05:43:05.820Z,5.67
2018-12-25T05:45:34.553Z,5.23
2018-12-25T05:48:03.132Z,4.60
2018-12-25T05:50:31.794Z,3.50
2018-12-25T05:53:00.433Z,5.60
2018-12-25T05:55:29.098Z,5.00
2018-12-25T05:58:00.435Z,4.70
2018-12-25T06:00:29.646Z,6.87
2018-12-25T06:02:58.209Z,5.53
2018-12-25T06:05:26.899Z,4.50
2018-12-25T06:07:55.471Z,4.37
2018-12-25T06:10:24.197Z,3.77
2018-12-25T06:12:52.695Z,4.40
2018-12-25T06:15:21.385Z,5.50
2018-12-25T06:17:49.944Z,4.20
2018-12-25T06:20:19.112Z,4.60
2018-12-25T06:22:47.677Z,4.00
2018-12-25T06:25:16.313Z,4.87
2018-12-25T06:27:45.174Z,4.13
2018-12-25T06:30:13.799Z,4.53
2018-12-25T06:32:42.502Z,4.07
2018-12-25T06:35:11.090Z,4.30
2018-12-25T06:37:39.789Z,4.63
2018-12-25T06:40:08.415Z,4.67
2018-12-25T06:42:37.287Z,4.27
2018-12-25T06:45:05.918Z,5.23
2018-12-25T06:47:34.612Z,4.93
2018-12-25T06:50:05.186Z,4.30
2018-12-25T06:52:34.068Z,5.93
2018-12-25T06:55:02.639Z,4.90
2018-12-25T06:57:31.858Z,6.23
2018-12-25T07:00:00.429Z,4.90
2018-12-25T07:02:29.093Z,5.30
2018-12-25T07:04:57.657Z,5.17
2018-12-25T07:07:26.431Z,5.00
2018-12-25T07:09:54.991Z,5.40
2018-12-25T07:12:23.608Z,5.37
2018-12-25T07:14:52.446Z,5.20
2018-12-25T07:17:20.923Z,5.20
2018-12-25T07:19:49.847Z,4.70
2018-12-25T07:22:18.395Z,4.60
2018-12-25T07:24:47.321Z,5.10
2018-12-25T07:27:15.878Z,5.00
2018-12-25T07:29:44.986Z,4.60
2018-12-25T07:32:13.468Z,4.63
2018-12-25T07:34:42.186Z,5.73
2018-12-25T07:37:10.759Z,5.20
2018-12-25T07:39:39.556Z,5.17
2018-12-25T07:42:08.116Z,4.43
2018-12-25T07:44:37.178Z,3.33
2018-12-25T07:47:05.862Z,3.00
2018-12-25T07:49:35.939Z,4.97
2018-12-25T07:52:04.797Z,4.30
2018-12-25T07:54:33.477Z,4.67
2018-12-25T07:57:02.033Z,4.83
2018-12-25T07:59:31.253Z,3.20
2018-12-25T08:01:59.810Z,5.30
2018-12-25T08:04:28.636Z,3.70
2018-12-25T08:06:57.204Z,3.73
2018-12-25T08:09:26.000Z,3.47
2018-12-25T08:11:54.564Z,3.37
2018-12-25T08:14:23.124Z,3.87
2018-12-25T08:16:52.256Z,4.33
2018-12-25T08:19:20.853Z,5.10
2018-12-25T08:21:49.843Z,5.77
2018-12-25T08:24:18.412Z,4.70
2018-12-25T08:26:47.622Z,5.20
2018-12-25T08:29:16.396Z,4.10
2018-12-25T08:31:45.207Z,3.90
2018-12-25T08:34:14.289Z,4.10
2018-12-25T08:36:42.883Z,4.30
2018-12-25T08:39:11.499Z,3.70
2018-12-25T08:41:40.220Z,5.10
2018-12-25T08:44:08.774Z,8.43
2018-12-25T08:46:37.496Z,3.10
2018-12-25T08:49:06.033Z,5.90
2018-12-25T08:51:37.824Z,2.57
2018-12-25T08:54:05.712Z,4.07
2018-12-25T08:56:34.451Z,4.30
2018-12-25T08:59:03.069Z,5.07
2018-12-25T09:01:31.789Z,5.57
2018-12-25T09:04:00.345Z,4.80
2018-12-25T09:06:29.269Z,5.10
2018-12-25T09:08:57.841Z,3.73
2018-12-25T09:11:26.837Z,5.30
2018-12-25T09:13:55.406Z,4.27
2018-12-25T09:16:24.083Z,4.60
2018-12-25T09:18:52.655Z,4.30
2018-12-25T09:21:21.985Z,4.80
2018-12-25T09:23:50.533Z,2.43
2018-12-25T09:26:23.850Z,5.33
2018-12-25T09:28:52.439Z,5.17
2018-12-25T09:31:21.139Z,3.97
2018-12-25T09:33:49.687Z,4.67
2018-12-25T09:36:18.425Z,4.43
2018-12-25T09:38:49.958Z,4.00
2018-12-25T09:41:18.997Z,3.37
2018-12-25T09:43:47.561Z,3.40
2018-12-25T09:46:16.631Z,4.80
2018-12-25T09:48:45.187Z,5.60
2018-12-25T09:51:14.217Z,11.70
2018-12-25T09:53:42.789Z,4.30
2018-12-25T09:56:11.627Z,4.20
2018-12-25T09:58:40.133Z,4.67
2018-12-25T10:01:09.370Z,7.83
2018-12-25T10:03:38.050Z,5.83
2018-12-25T10:06:07.139Z,4.27
2018-12-25T10:08:35.725Z,5.03
2018-12-25T10:11:04.524Z,5.43
2018-12-25T10:13:33.389Z,4.27
2018-12-25T10:16:03.241Z,6.10
2018-12-25T10:18:32.623Z,4.37
2018-12-25T10:21:01.971Z,5.27
2018-12-25T10:23:30.542Z,4.60
2018-12-25T10:25:59.393Z,5.83
2018-12-25T10:28:27.974Z,7.70
2018-12-25T10:30:56.772Z,6.87
2018-12-25T10:33:25.364Z,5.10
2018-12-25T10:35:54.547Z,8.90
2018-12-25T10:38:23.093Z,7.93
2018-12-25T10:40:51.925Z,5.27
2018-12-25T10:43:22.521Z,4.00
2018-12-25T10:45:51.499Z,5.00
2018-12-25T10:48:20.341Z,2.60
2018-12-25T10:50:49.120Z,4.10
2018-12-25T10:53:17.691Z,5.40
2018-12-25T10:55:46.257Z,5.13
2018-12-25T10:58:15.317Z,3.30
2018-12-25T11:00:44.193Z,1.73
2018-12-25T11:03:13.182Z,4.03
2018-12-25T11:05:41.706Z,3.03
2018-12-25T11:08:10.536Z,4.00
2018-12-25T11:10:39.095Z,3.53
2018-12-25T11:13:07.797Z,4.27
2018-12-25T11:15:36.385Z,4.47
2018-12-25T11:18:05.315Z,5.07
2018-12-25T11:20:34.197Z,4.77
2018-12-25T11:23:03.668Z,4.30
2018-12-25T11:25:32.227Z,5.57
2018-12-25T11:28:01.037Z,4.23
2018-12-25T11:30:29.610Z,4.40
2018-12-25T11:32:58.399Z,5.17
2018-12-25T11:35:30.197Z,4.50
2018-12-25T11:37:58.761Z,3.37
2018-12-25T11:40:27.751Z,4.30
2018-12-25T11:42:56.626Z,4.97
2018-12-25T11:45:25.189Z,4.53
2018-12-25T11:47:54.006Z,4.10
2018-12-25T11:50:22.555Z,4.70
2018-12-25T11:52:51.352Z,3.47
2018-12-25T11:55:19.914Z,4.07
2018-12-25T11:57:48.944Z,5.03
2018-12-25T12:00:17.507Z,4.30
2018-12-25T12:02:46.063Z,5.10
2018-12-25T12:05:15.013Z,4.73
2018-12-25T12:07:43.639Z,4.40
2018-12-25T12:10:12.584Z,4.67
2018-12-25T12:12:41.143Z,4.20
2018-12-25T12:15:09.961Z,4.57
2018-12-25T12:17:38.848Z,5.47
2018-12-25T12:20:07.792Z,6.20
2018-12-25T12:22:38.085Z,9.10
2018-12-25T12:25:06.651Z,12.33
2018-12-25T12:27:37.309Z,8.13
2018-12-25T12:30:06.619Z,7.70
2018-12-25T12:32:35.195Z,8.20
2018-12-25T12:35:05.121Z,8.20
2018-12-25T12:37:33.633Z,7.20
2018-12-25T12:40:07.069Z,10.60
2018-12-25T12:42:35.676Z,7.30
2018-12-25T12:45:06.285Z,8.27
2018-12-25T12:47:34.839Z,5.93
2018-12-25T12:50:06.201Z,5.10
2018-12-25T12:52:34.831Z,5.80
2018-12-25T12:55:03.659Z,5.63
2018-12-25T12:57:32.785Z,4.47
2018-12-25T13:00:01.547Z,5.43
2018-12-25T13:02:30.116Z,4.77
2018-12-25T13:04:58.657Z,5.40
2018-12-25T13:07:27.763Z,5.60
2018-12-25T13:09:56.601Z,5.60
2018-12-25T13:12:25.232Z,4.60
2018-12-25T13:14:53.924Z,4.50
2018-12-25T13:17:22.509Z,5.50
2018-12-25T13:19:51.190Z,4.83
2018-12-25T13:22:19.831Z,4.47
2018-12-25T13:24:48.562Z,5.20
2018-12-25T13:27:17.113Z,4.70
2018-12-25T13:29:46.100Z,5.20
2018-12-25T13:32:14.655Z,4.43
2018-12-25T13:34:43.547Z,3.97
2018-12-25T13:37:12.073Z,4.10
2018-12-25T13:39:40.843Z,4.77
2018-12-25T13:42:09.416Z,4.90
2018-12-25T13:44:44.429Z,5.63
2018-12-25T13:47:12.971Z,5.20
2018-12-25T13:49:41.933Z,4.07
2018-12-25T13:52:10.830Z,4.80
2018-12-25T13:54:39.711Z,4.67
2018-12-25T13:57:09.523Z,5.60
2018-12-25T13:59:38.227Z,5.87
2018-12-25T14:02:06.783Z,5.70
2018-12-25T14:04:35.577Z,3.40
2018-12-25T14:07:04.132Z,4.07
2018-12-25T14:09:32.844Z,3.83
2018-12-25T14:12:01.403Z,4.40
2018-12-25T14:14:30.482Z,3.70
2018-12-25T14:16:59.048Z,4.23
2018-12-25T14:19:27.751Z,4.10
2018-12-25T14:21:56.557Z,3.80
2018-12-25T14:24:25.243Z,4.20
2018-12-25T14:26:53.808Z,3.90
2018-12-25T14:29:22.950Z,3.80
2018-12-25T14:31:51.520Z,2.90
2018-12-25T14:34:20.278Z,3.60
2018-12-25T14:36:48.922Z,3.57
2018-12-25T14:39:17.911Z,3.20
2018-12-25T14:41:46.508Z,4.60
2018-12-25T14:44:15.070Z,2.83
2018-12-25T14:46:44.235Z,4.00
2018-12-25T14:49:12.804Z,3.50
2018-12-25T14:51:42.662Z,4.30
2018-12-25T14:54:11.238Z,4.97
2018-12-25T14:56:40.168Z,3.90
2018-12-25T14:59:08.737Z,3.57
2018-12-25T15:01:37.831Z,3.27
2018-12-25T15:04:06.372Z,3.80
2018-12-25T15:06:35.514Z,4.40
2018-12-25T15:09:05.602Z,3.77
2018-12-25T15:11:34.299Z,3.80
2018-12-25T15:14:03.226Z,3.27
2018-12-25T15:16:31.783Z,2.53
2018-12-25T15:19:00.432Z,4.20
2018-12-25T15:21:30.436Z,3.07
2018-12-25T15:23:59.400Z,2.97
2018-12-25T15:26:28.491Z,3.20
2018-12-25T15:28:57.060Z,3.50
2018-12-25T15:31:25.624Z,4.00
2018-12-25T15:33:54.710Z,3.40
2018-12-25T15:36:23.270Z,4.60
2018-12-25T15:38:51.950Z,3.40
2018-12-25T15:41:20.570Z,3.90
2018-12-25T15:43:49.585Z,4.60
2018-12-25T15:46:18.158Z,4.47
2018-12-25T15:48:46.829Z,4.60
2018-12-25T15:51:15.826Z,4.40
2018-12-25T15:53:44.512Z,3.93
2018-12-25T15:56:13.134Z,4.90
2018-12-25T15:58:41.996Z,4.53
2018-12-25T16:01:10.575Z,4.17
2018-12-25T16:03:39.346Z,3.73
2018-12-25T16:06:07.903Z,4.70
2018-12-25T16:08:36.644Z,5.23
2018-12-25T16:11:05.200Z,3.67
2018-12-25T16:13:33.938Z,4.37
2018-12-25T16:16:03.044Z,3.63
2018-12-25T16:18:31.898Z,4.20
2018-12-25T16:21:01.013Z,4.20
2018-12-25T16:23:30.084Z,4.87
2018-12-25T16:25:58.713Z,3.87
2018-12-25T16:28:27.656Z,5.00
2018-12-25T16:30:56.233Z,4.00
2018-12-25T16:33:24.895Z,4.63
2018-12-25T16:35:53.567Z,3.73
2018-12-25T16:38:22.397Z,4.47
2018-12-25T16:40:51.286Z,4.70
2018-12-25T16:43:19.856Z,4.30
2018-12-25T16:45:48.563Z,4.00
2018-12-25T16:48:17.119Z,5.30
2018-12-25T16:50:46.037Z,4.20
2018-12-25T16:53:14.730Z,4.90
2018-12-25T16:55:43.483Z,4.90
2018-12-25T16:58:12.138Z,4.97
2018-12-25T17:00:41.267Z,5.50
2018-12-25T17:03:09.825Z,3.93
2018-12-25T17:05:38.534Z,4.67
2018-12-25T17:08:07.178Z,5.10
2018-12-25T17:10:35.855Z,4.20
2018-12-25T17:13:04.513Z,4.73
2018-12-25T17:15:33.130Z,4.50
2018-12-25T17:18:02.093Z,5.30
2018-12-25T17:20:30.687Z,4.23
2018-12-25T17:22:59.866Z,4.90
2018-12-25T17:25:28.567Z,4.20
2018-12-25T17:27:57.123Z,3.83
2018-12-25T17:30:26.151Z,4.30
2018-12-25T17:32:55.662Z,5.77
2018-12-25T17:35:24.421Z,4.70
2018-12-25T17:37:52.973Z,3.60
2018-12-25T17:40:21.689Z,4.67
2018-12-25T17:42:50.193Z,5.67
2018-12-25T17:45:18.835Z,5.60
2018-12-25T17:47:47.536Z,4.37
2018-12-25T17:50:16.443Z,4.20
2018-12-25T17:52:44.991Z,4.77
2018-12-25T17:55:13.674Z,4.67
2018-12-25T17:57:42.336Z,4.53
2018-12-25T18:00:10.949Z,5.37
2018-12-25T18:02:42.669Z,4.10
2018-12-25T18:05:12.080Z,2.80
2018-12-25T18:07:41.160Z,5.10
2018-12-25T18:10:09.708Z,3.77
2018-12-25T18:12:38.560Z,4.50
2018-12-25T18:15:08.218Z,4.67
2018-12-25T18:17:37.345Z,4.80
2018-12-25T18:20:07.446Z,3.07
2018-12-25T18:22:36.772Z,3.63
2018-12-25T18:25:05.507Z,3.60
2018-12-25T18:27:34.240Z,3.63
2018-12-25T18:30:04.061Z,4.00
2018-12-25T18:32:32.959Z,3.97
2018-12-25T18:35:01.592Z,4.47
2018-12-25T18:37:30.778Z,3.93
2018-12-25T18:39:59.355Z,4.63
2018-12-25T18:42:28.328Z,3.60
2018-12-25T18:44:56.976Z,3.80
2018-12-25T18:47:25.835Z,3.00
2018-12-25T18:49:54.391Z,4.40
2018-12-25T18:52:23.130Z,4.00
2018-12-25T18:54:51.865Z,3.60
2018-12-25T18:57:22.678Z,4.13
2018-12-25T18:59:51.252Z,3.87
2018-12-25T19:02:19.910Z,4.30
2018-12-25T19:04:48.895Z,3.87
2018-12-25T19:07:17.523Z,3.67
2018-12-25T19:09:46.087Z,3.87
2018-12-25T19:12:15.089Z,4.37
2018-12-25T19:14:46.923Z,6.00
2018-12-25T19:17:15.947Z,3.67
2018-12-25T19:19:44.516Z,3.90
2018-12-25T19:22:13.789Z,3.97
2018-12-25T19:24:42.440Z,3.70
2018-12-25T19:27:11.189Z,3.70
2018-12-25T19:29:39.981Z,3.40
2018-12-25T19:32:09.022Z,3.40
2018-12-25T19:34:40.429Z,3.53
2018-12-25T19:37:09.060Z,3.63
2018-12-25T19:39:38.022Z,3.70
2018-12-25T19:42:06.584Z,2.33
2018-12-25T19:44:35.390Z,3.10
2018-12-25T19:47:03.957Z,3.27
2018-12-25T19:49:32.863Z,3.03
2018-12-25T19:52:01.483Z,3.53
2018-12-25T19:54:30.125Z,3.90
2018-12-25T19:56:58.677Z,3.30
2018-12-25T19:59:27.439Z,2.93
2018-12-25T20:01:56.073Z,3.00
2018-12-25T20:04:27.824Z,2.50
2018-12-25T20:07:19.183Z,3.60
2018-12-25T20:09:50.901Z,3.80
2018-12-25T20:12:22.548Z,2.83
2018-12-25T20:15:03.127Z,3.23
2018-12-25T20:17:34.745Z,2.60
2018-12-25T20:20:27.083Z,2.50
2018-12-25T20:23:28.358Z,3.53
2018-12-25T20:26:08.715Z,3.17
2018-12-25T20:28:43.700Z,3.10
2018-12-25T20:31:39.397Z,4.10
2018-12-25T20:34:32.217Z,4.13
2018-12-25T20:37:12.321Z,4.53
2018-12-25T20:39:49.188Z,4.13
2018-12-25T20:42:38.669Z,4.23
2018-12-25T20:45:43.846Z,4.07
2018-12-25T20:48:31.751Z,5.30
2018-12-25T20:51:19.708Z,4.97
2018-12-25T20:54:14.211Z,5.33
2018-12-25T20:57:09.711Z,4.10
2018-12-25T21:00:02.702Z,2.23
2018-12-25T21:02:52.129Z,3.80
2018-12-25T21:05:48.529Z,4.50
2018-12-25T21:08:32.183Z,4.33
2018-12-25T21:11:19.075Z,2.87
2018-12-25T21:14:00.032Z,4.50
2018-12-25T21:16:50.204Z,5.40
2018-12-25T21:19:28.278Z,4.97
2018-12-25T21:22:07.234Z,5.20
2018-12-25T21:25:10.434Z,5.23
2018-12-25T21:27:39.946Z,5.17
2018-12-25T21:30:08.622Z,4.70
2018-12-25T21:32:37.927Z,6.83
2018-12-25T21:35:12.510Z,5.97
2018-12-25T21:37:41.632Z,6.50
2018-12-25T21:40:10.689Z,5.10
2018-12-25T21:42:39.932Z,6.40
2018-12-25T21:45:09.098Z,7.10
2018-12-25T21:47:37.832Z,6.50
2018-12-25T21:50:08.517Z,6.30
2018-12-25T21:52:37.564Z,6.60
2018-12-25T21:55:08.656Z,7.30
2018-12-25T21:57:37.956Z,5.67
2018-12-25T22:00:12.402Z,6.10
2018-12-25T22:02:41.103Z,6.87
2018-12-25T22:05:11.204Z,6.63
2018-12-25T22:07:39.868Z,7.20
2018-12-25T22:10:08.801Z,7.00
2018-12-25T22:12:37.540Z,6.80
2018-12-25T22:15:07.858Z,8.03
2018-12-25T22:17:36.416Z,6.63
2018-12-25T22:20:11.440Z,7.10
2018-12-25T22:22:40.504Z,6.93
2018-12-25T22:25:09.170Z,7.40
2018-12-25T22:27:37.734Z,8.30
2018-12-25T22:30:06.476Z,7.43
2018-12-25T22:32:35.179Z,9.37
2018-12-25T22:35:04.079Z,7.30
2018-12-25T22:37:34.227Z,9.03
2018-12-25T22:40:06.273Z,8.10
2018-12-25T22:42:35.011Z,8.13
2018-12-25T22:45:04.726Z,7.60
2018-12-25T22:47:33.373Z,8.23
2018-12-25T22:50:02.002Z,9.10
2018-12-25T22:52:32.924Z,4.87
2018-12-25T22:55:01.490Z,7.60
2018-12-25T22:57:30.151Z,8.30
2018-12-25T22:59:58.704Z,7.07
2018-12-25T23:02:27.352Z,8.20
2018-12-25T23:04:55.933Z,7.77
2018-12-25T23:07:24.496Z,9.27
2018-12-25T23:09:53.461Z,10.90
2018-12-25T23:12:22.049Z,8.93
2018-12-25T23:14:50.716Z,9.43
2018-12-25T23:17:19.233Z,7.57
2018-12-25T23:19:47.872Z,8.27
2018-12-25T23:22:16.862Z,8.20
2018-12-25T23:24:45.470Z,10.83
2018-12-25T23:27:14.038Z,5.53
2018-12-25T23:29:42.984Z,8.37
2018-12-25T23:32:11.840Z,9.00
2018-12-25T23:34:40.473Z,8.30
2018-12-25T23:37:09.222Z,9.40
2018-12-25T23:39:37.797Z,8.23
2018-12-25T23:42:06.489Z,7.97
2018-12-25T23:44:35.080Z,8.47
2018-12-25T23:47:03.662Z,8.50
2018-12-25T23:49:32.604Z,9.83
2018-12-25T23:52:01.192Z,10.13
2018-12-25T23:54:29.896Z,10.70
2018-12-25T23:56:58.456Z,6.33
2018-12-25T23:59:27.098Z,9.80
